Terminal Aerodrome Forecast
Issued by NWS

Home | Current Version | Previous Version | Graphics & Text | Print | Product List | Glossary Off
Versions: 1 2 3 4 5 6 7 8 9 10 11 12 13 14 15 16 17 18

000
FTUS43 KDDC 241733
TAFHYS
TAF
KHYS 241733Z 2418/2518 18015KT P6SM OVC120
     FM241900 17015G25KT P6SM SCT110
     FM250100 16015KT P6SM VCTS SCT100CB
     FM250300 16015KT P6SM BKN100 PROB30 2503/2508 4SM TSRA OVC025CB
     FM250800 17010KT P6SM SCT100=

USA.gov is the U.S. government's official web portal to all federal, state and local government web resources and services.